Kezdőlap
METAR-TAF:

METAR-TAF

Repülőterek :

Gaines County Airport

Seminole, Texas, Amerikai Egyesült Államok

földrajzi szélesség: 32-40-31N, földrajzi hosszúság: 102-39-09W, magasság: 1010 m

Jelenlegi meteorológiai megfigyelések

A jelentés 19 perccel ezelõtt készült, 14:55 UTC
Déli szél 13 kt széllökések: 20 kt
Hőmérséklet 27°C
Páratartalom 66%
Légköri nyomás 1011 hPa
Látótávolság: 16.1 km
Derült ég

METAR: KGNC 181455Z AUTO 18013G20KT 10SM CLR 27/20 A2985 RMK AO2 T02710196

Idő: 10:14 (15:14 UTC)


TAF: hiányzik

Meteorológiai megfigyelések és előrejelzések több, mint 4000 repülőtéren (METAR és TAF jelentéseket).

A térképen piros és sárga pontok jelzik az elérhető meteorológiai állomásokat.

Mozgassa az egeret a pont fölött, hogy megjelenjen az állomás neve.

Azután kattintson az időjárási megfigyelések és előrejelzések megtekintéséhez.

A térkép megváltoztatása: kattintson a fekete keresztel jelölt zöld gombra ráközelítéshez, a vonallal jelölt zöld gombra távolításhoz, vagy a zöld nyilakra a szomszédos térképek eléréséhez.


METAR-TAF: